TAF Text Data
IDs:
Format:
Raw Decoded Include METAR

Data at: 0317 UTC 19 Oct 2021

KSAT 182322Z 1900/2006 15007KT P6SM BKN250
  FM191000 15005KT P6SM SCT018 BKN250
  FM191700 15010KT P6SM SCT035 BKN250
  FM200400 15008KT P6SM BKN018